sensor_id;sensor_type;location;lat;lon;timestamp;pressure;altitude;pressure_sealevel;temperature;humidity
12203;BME280;6164;42.178;24.622;2022-12-18T00:01:36;100384.06;;;9.13;100.00
12203;BME280;6164;42.178;24.622;2022-12-18T00:04:04;100396.84;;;9.17;100.00
12203;BME280;6164;42.178;24.622;2022-12-18T00:06:30;100404.59;;;9.09;100.00
12203;BME280;6164;42.178;24.622;2022-12-18T00:08:58;100399.59;;;9.16;100.00
12203;BME280;6164;42.178;24.622;2022-12-18T00:11:25;100406.56;;;9.07;100.00
12203;BME280;6164;42.178;24.622;2022-12-18T00:13:54;100410.69;;;9.10;100.00
12203;BME280;6164;42.178;24.622;2022-12-18T00:16:22;100418.59;;;9.10;100.00
12203;BME280;6164;42.178;24.622;2022-12-18T00:18:49;100419.44;;;9.20;100.00
12203;BME280;6164;42.178;24.622;2022-12-18T00:21:16;100425.13;;;9.25;100.00
12203;BME280;6164;42.178;24.622;2022-12-18T00:23:43;100434.41;;;9.19;100.00
12203;BME280;6164;42.178;24.622;2022-12-18T00:26:11;100431.91;;;9.27;100.00
12203;BME280;6164;42.178;24.622;2022-12-18T00:28:37;100438.84;;;9.28;100.00
12203;BME280;6164;42.178;24.622;2022-12-18T00:31:06;100440.22;;;9.32;100.00
12203;BME280;6164;42.178;24.622;2022-12-18T00:33:33;100444.53;;;9.33;100.00
12203;BME280;6164;42.178;24.622;2022-12-18T00:36:00;100447.03;;;9.35;100.00
12203;BME280;6164;42.178;24.622;2022-12-18T00:38:27;100441.63;;;9.37;100.00
12203;BME280;6164;42.178;24.622;2022-12-18T00:40:53;100444.69;;;9.32;100.00
12203;BME280;6164;42.178;24.622;2022-12-18T00:43:19;100448.28;;;9.21;100.00
12203;BME280;6164;42.178;24.622;2022-12-18T00:45:45;100451.34;;;9.07;100.00
12203;BME280;6164;42.178;24.622;2022-12-18T00:48:13;100457.84;;;9.13;100.00
12203;BME280;6164;42.178;24.622;2022-12-18T00:50:39;100462.56;;;9.19;100.00
12203;BME280;6164;42.178;24.622;2022-12-18T00:53:06;100457.97;;;9.21;100.00
12203;BME280;6164;42.178;24.622;2022-12-18T00:55:32;100458.53;;;9.24;100.00
12203;BME280;6164;42.178;24.622;2022-12-18T00:57:59;100452.31;;;9.25;100.00
12203;BME280;6164;42.178;24.622;2022-12-18T01:00:25;100454.50;;;9.30;100.00
12203;BME280;6164;42.178;24.622;2022-12-18T01:02:52;100452.56;;;9.32;100.00
12203;BME280;6164;42.178;24.622;2022-12-18T01:05:20;100453.13;;;9.36;100.00
12203;BME280;6164;42.178;24.622;2022-12-18T01:07:46;100449.53;;;9.37;100.00
12203;BME280;6164;42.178;24.622;2022-12-18T01:10:13;100448.38;;;9.39;100.00
12203;BME280;6164;42.178;24.622;2022-12-18T01:12:39;100462.13;;;9.43;100.00
12203;BME280;6164;42.178;24.622;2022-12-18T01:15:06;100465.75;;;9.42;100.00
12203;BME280;6164;42.178;24.622;2022-12-18T01:17:33;100464.75;;;9.43;100.00
12203;BME280;6164;42.178;24.622;2022-12-18T01:19:59;100463.81;;;9.44;100.00
12203;BME280;6164;42.178;24.622;2022-12-18T01:22:27;100464.47;;;9.46;100.00
12203;BME280;6164;42.178;24.622;2022-12-18T01:24:54;100459.09;;;9.47;100.00
12203;BME280;6164;42.178;24.622;2022-12-18T01:27:20;100459.75;;;9.49;100.00
12203;BME280;6164;42.178;24.622;2022-12-18T01:29:46;100458.81;;;9.50;100.00
12203;BME280;6164;42.178;24.622;2022-12-18T01:32:13;100457.69;;;9.53;100.00
12203;BME280;6164;42.178;24.622;2022-12-18T01:34:39;100463.66;;;9.55;100.00
12203;BME280;6164;42.178;24.622;2022-12-18T01:37:06;100456.44;;;9.57;100.00
12203;BME280;6164;42.178;24.622;2022-12-18T01:39:34;100456.59;;;9.55;100.00
12203;BME280;6164;42.178;24.622;2022-12-18T01:42:01;100452.13;;;9.56;100.00
12203;BME280;6164;42.178;24.622;2022-12-18T01:47:30;100456.44;;;9.57;100.00
12203;BME280;6164;42.178;24.622;2022-12-18T01:49:58;100450.19;;;9.58;100.00
12203;BME280;6164;42.178;24.622;2022-12-18T01:52:26;100463.50;;;9.56;100.00
12203;BME280;6164;42.178;24.622;2022-12-18T01:54:55;100482.25;;;9.53;100.00
12203;BME280;6164;42.178;24.622;2022-12-18T01:57:22;100472.13;;;9.49;100.00
12203;BME280;6164;42.178;24.622;2022-12-18T01:59:50;100477.41;;;9.49;100.00
12203;BME280;6164;42.178;24.622;2022-12-18T02:02:18;100474.75;;;9.49;100.00
12203;BME280;6164;42.178;24.622;2022-12-18T02:04:44;100472.28;;;9.47;100.00
12203;BME280;6164;42.178;24.622;2022-12-18T02:07:16;100473.22;;;9.46;100.00
12203;BME280;6164;42.178;24.622;2022-12-18T02:09:46;100467.00;;;9.47;100.00
12203;BME280;6164;42.178;24.622;2022-12-18T02:12:16;100466.16;;;9.47;100.00
12203;BME280;6164;42.178;24.622;2022-12-18T02:14:45;100467.00;;;9.47;100.00
12203;BME280;6164;42.178;24.622;2022-12-18T02:17:16;100471.16;;;9.50;100.00
12203;BME280;6164;42.178;24.622;2022-12-18T02:19:46;100477.53;;;9.47;100.00
12203;BME280;6164;42.178;24.622;2022-12-18T02:22:18;100479.19;;;9.48;100.00
12203;BME280;6164;42.178;24.622;2022-12-18T02:24:53;100477.25;;;9.50;100.00
12203;BME280;6164;42.178;24.622;2022-12-18T02:27:22;100488.50;;;9.52;100.00
12203;BME280;6164;42.178;24.622;2022-12-18T02:29:50;100486.13;;;9.49;100.00
12203;BME280;6164;42.178;24.622;2022-12-18T02:32:17;100488.63;;;9.51;100.00
12203;BME280;6164;42.178;24.622;2022-12-18T02:34:45;100491.25;;;9.51;100.00
12203;BME280;6164;42.178;24.622;2022-12-18T02:37:12;100489.03;;;9.56;100.00
12203;BME280;6164;42.178;24.622;2022-12-18T02:39:42;100486.81;;;9.61;100.00
12203;BME280;6164;42.178;24.622;2022-12-18T02:42:09;100486.00;;;9.60;100.00
12203;BME280;6164;42.178;24.622;2022-12-18T02:44:42;100490.13;;;9.63;100.00
12203;BME280;6164;42.178;24.622;2022-12-18T02:47:10;100482.50;;;9.69;100.00
12203;BME280;6164;42.178;24.622;2022-12-18T02:49:40;100487.91;;;9.68;100.00
12203;BME280;6164;42.178;24.622;2022-12-18T02:52:12;100487.06;;;9.67;100.00
12203;BME280;6164;42.178;24.622;2022-12-18T02:54:48;100491.81;;;9.64;100.00
12203;BME280;6164;42.178;24.622;2022-12-18T02:57:16;100499.44;;;9.67;100.00
12203;BME280;6164;42.178;24.622;2022-12-18T02:59:49;100500.38;;;9.75;100.00
12203;BME280;6164;42.178;24.622;2022-12-18T03:02:21;100493.47;;;9.65;100.00
12203;BME280;6164;42.178;24.622;2022-12-18T03:04:50;100498.88;;;9.73;100.00
12203;BME280;6164;42.178;24.622;2022-12-18T03:07:21;100500.25;;;9.67;100.00
12203;BME280;6164;42.178;24.622;2022-12-18T03:09:50;100505.25;;;9.61;100.00
12203;BME280;6164;42.178;24.622;2022-12-18T03:12:18;100504.84;;;9.65;100.00
12203;BME280;6164;42.178;24.622;2022-12-18T03:14:52;100502.88;;;9.67;100.00
12203;BME280;6164;42.178;24.622;2022-12-18T03:17:21;100498.03;;;9.63;100.00
12203;BME280;6164;42.178;24.622;2022-12-18T03:19:49;100509.56;;;9.62;100.00
12203;BME280;6164;42.178;24.622;2022-12-18T03:22:17;100504.59;;;9.59;100.00
12203;BME280;6164;42.178;24.622;2022-12-18T03:24:44;100501.09;;;9.58;100.00
12203;BME280;6164;42.178;24.622;2022-12-18T03:27:12;100504.19;;;9.54;100.00
12203;BME280;6164;42.178;24.622;2022-12-18T03:29:42;100497.34;;;9.51;100.00
12203;BME280;6164;42.178;24.622;2022-12-18T03:32:12;100499.16;;;9.51;100.00
12203;BME280;6164;42.178;24.622;2022-12-18T03:34:41;100513.88;;;9.53;100.00
12203;BME280;6164;42.178;24.622;2022-12-18T03:37:09;100512.09;;;9.54;100.00
12203;BME280;6164;42.178;24.622;2022-12-18T03:39:35;100520.25;;;9.51;100.00
12203;BME280;6164;42.178;24.622;2022-12-18T03:42:04;100520.38;;;9.49;100.00
12203;BME280;6164;42.178;24.622;2022-12-18T03:44:32;100527.91;;;9.54;100.00
12203;BME280;6164;42.178;24.622;2022-12-18T03:47:04;100534.81;;;9.55;100.00
12203;BME280;6164;42.178;24.622;2022-12-18T03:49:34;100542.44;;;9.58;100.00
12203;BME280;6164;42.178;24.622;2022-12-18T03:52:02;100547.44;;;9.51;100.00
12203;BME280;6164;42.178;24.622;2022-12-18T03:54:30;100554.78;;;9.57;100.00
12203;BME280;6164;42.178;24.622;2022-12-18T03:56:59;100549.66;;;9.56;100.00
12203;BME280;6164;42.178;24.622;2022-12-18T03:59:27;100549.78;;;9.45;100.00
12203;BME280;6164;42.178;24.622;2022-12-18T04:01:55;100550.78;;;9.44;100.00
12203;BME280;6164;42.178;24.622;2022-12-18T04:04:24;100548.00;;;9.45;100.00
12203;BME280;6164;42.178;24.622;2022-12-18T04:06:53;100549.38;;;9.49;100.00
12203;BME280;6164;42.178;24.622;2022-12-18T04:09:20;100556.88;;;9.44;100.00
12203;BME280;6164;42.178;24.622;2022-12-18T04:11:47;100556.72;;;9.46;100.00
12203;BME280;6164;42.178;24.622;2022-12-18T04:14:13;100571.16;;;9.42;100.00
12203;BME280;6164;42.178;24.622;2022-12-18T04:16:40;100577.94;;;9.44;100.00
12203;BME280;6164;42.178;24.622;2022-12-18T04:19:06;100579.63;;;9.45;100.00
12203;BME280;6164;42.178;24.622;2022-12-18T04:21:33;100586.84;;;9.43;100.00
12203;BME280;6164;42.178;24.622;2022-12-18T04:24:00;100576.56;;;9.40;100.00
12203;BME280;6164;42.178;24.622;2022-12-18T04:26:27;100582.69;;;9.41;100.00
12203;BME280;6164;42.178;24.622;2022-12-18T04:28:53;100595.69;;;9.32;100.00
12203;BME280;6164;42.178;24.622;2022-12-18T04:31:20;100589.19;;;9.37;100.00
12203;BME280;6164;42.178;24.622;2022-12-18T04:33:46;100588.34;;;9.36;100.00
12203;BME280;6164;42.178;24.622;2022-12-18T04:36:13;100591.53;;;9.30;100.00
12203;BME280;6164;42.178;24.622;2022-12-18T04:38:39;100583.47;;;9.22;100.00
12203;BME280;6164;42.178;24.622;2022-12-18T04:41:07;100590.41;;;9.23;100.00
12203;BME280;6164;42.178;24.622;2022-12-18T04:43:34;100583.47;;;9.22;100.00
12203;BME280;6164;42.178;24.622;2022-12-18T04:46:01;100589.69;;;9.21;100.00
12203;BME280;6164;42.178;24.622;2022-12-18T04:48:27;100590.69;;;9.20;100.00
12203;BME280;6164;42.178;24.622;2022-12-18T04:50:54;100588.31;;;9.07;100.00
12203;BME280;6164;42.178;24.622;2022-12-18T04:53:20;100591.72;;;8.98;100.00
12203;BME280;6164;42.178;24.622;2022-12-18T04:55:47;100601.81;;;8.93;100.00
12203;BME280;6164;42.178;24.622;2022-12-18T04:58:15;100604.59;;;8.92;100.00
12203;BME280;6164;42.178;24.622;2022-12-18T05:00:41;100609.44;;;8.96;100.00
12203;BME280;6164;42.178;24.622;2022-12-18T05:03:08;100607.94;;;8.94;100.00
12203;BME280;6164;42.178;24.622;2022-12-18T05:05:34;100609.72;;;8.93;100.00
12203;BME280;6164;42.178;24.622;2022-12-18T05:08:01;100620.25;;;8.93;100.00
12203;BME280;6164;42.178;24.622;2022-12-18T05:10:27;100620.53;;;8.90;100.00
12203;BME280;6164;42.178;24.622;2022-12-18T05:12:54;100626.38;;;8.94;100.00
12203;BME280;6164;42.178;24.622;2022-12-18T05:15:28;100632.34;;;8.96;100.00
12203;BME280;6164;42.178;24.622;2022-12-18T05:17:55;100634.13;;;8.95;100.00
12203;BME280;6164;42.178;24.622;2022-12-18T05:20:22;100636.38;;;9.00;100.00
12203;BME280;6164;42.178;24.622;2022-12-18T05:22:49;100637.47;;;8.97;100.00
12203;BME280;6164;42.178;24.622;2022-12-18T05:25:15;100645.94;;;9.01;100.00
12203;BME280;6164;42.178;24.622;2022-12-18T05:27:42;100648.00;;;8.97;100.00
12203;BME280;6164;42.178;24.622;2022-12-18T05:30:09;100656.84;;;8.96;100.00
12203;BME280;6164;42.178;24.622;2022-12-18T05:32:37;100656.41;;;8.91;100.00
12203;BME280;6164;42.178;24.622;2022-12-18T05:35:04;100653.56;;;8.94;100.00
12203;BME280;6164;42.178;24.622;2022-12-18T05:37:31;100657.13;;;8.93;100.00
12203;BME280;6164;42.178;24.622;2022-12-18T05:39:57;100657.97;;;8.94;100.00
12203;BME280;6164;42.178;24.622;2022-12-18T05:42:24;100665.03;;;8.93;100.00
12203;BME280;6164;42.178;24.622;2022-12-18T05:44:50;100668.66;;;8.92;100.00
12203;BME280;6164;42.178;24.622;2022-12-18T05:47:17;100676.53;;;8.92;100.00
12203;BME280;6164;42.178;24.622;2022-12-18T05:49:44;100677.34;;;8.93;100.00
12203;BME280;6164;42.178;24.622;2022-12-18T05:52:11;100675.84;;;8.90;100.00
12203;BME280;6164;42.178;24.622;2022-12-18T05:54:37;100680.69;;;8.95;100.00
12203;BME280;6164;42.178;24.622;2022-12-18T05:57:04;100685.16;;;8.94;100.00
12203;BME280;6164;42.178;24.622;2022-12-18T05:59:31;100687.34;;;8.89;100.00
12203;BME280;6164;42.178;24.622;2022-12-18T06:01:57;100686.38;;;8.90;100.00
12203;BME280;6164;42.178;24.622;2022-12-18T06:04:24;100690.66;;;8.91;100.00
12203;BME280;6164;42.178;24.622;2022-12-18T06:06:53;100697.22;;;8.97;100.00
12203;BME280;6164;42.178;24.622;2022-12-18T06:09:20;100699.00;;;8.96;100.00
12203;BME280;6164;42.178;24.622;2022-12-18T06:11:46;100705.16;;;9.06;100.00
12203;BME280;6164;42.178;24.622;2022-12-18T06:14:13;100703.94;;;9.10;100.00
12203;BME280;6164;42.178;24.622;2022-12-18T06:16:42;100714.06;;;9.15;100.00
12203;BME280;6164;42.178;24.622;2022-12-18T06:19:12;100716.56;;;9.16;100.00
12203;BME280;6164;42.178;24.622;2022-12-18T06:21:39;100708.94;;;9.13;100.00
12203;BME280;6164;42.178;24.622;2022-12-18T06:24:07;100719.78;;;9.20;100.00
12203;BME280;6164;42.178;24.622;2022-12-18T06:26:34;100718.91;;;9.10;100.00
12203;BME280;6164;42.178;24.622;2022-12-18T06:29:02;100725.59;;;9.14;100.00
12203;BME280;6164;42.178;24.622;2022-12-18T06:31:29;100733.50;;;9.14;100.00
12203;BME280;6164;42.178;24.622;2022-12-18T06:33:55;100727.66;;;9.10;100.00
12203;BME280;6164;42.178;24.622;2022-12-18T06:36:22;100738.59;;;9.06;100.00
12203;BME280;6164;42.178;24.622;2022-12-18T06:38:48;100736.06;;;9.04;100.00
12203;BME280;6164;42.178;24.622;2022-12-18T06:41:17;100735.69;;;9.09;100.00
12203;BME280;6164;42.178;24.622;2022-12-18T06:43:43;100734.00;;;9.08;100.00
12203;BME280;6164;42.178;24.622;2022-12-18T06:46:10;100740.50;;;9.04;100.00
12203;BME280;6164;42.178;24.622;2022-12-18T06:48:37;100743.41;;;9.01;100.00
12203;BME280;6164;42.178;24.622;2022-12-18T06:51:04;100747.44;;;9.05;100.00
12203;BME280;6164;42.178;24.622;2022-12-18T06:53:31;100752.00;;;9.03;100.00
12203;BME280;6164;42.178;24.622;2022-12-18T06:55:59;100747.28;;;9.06;100.00
12203;BME280;6164;42.178;24.622;2022-12-18T06:58:28;100760.06;;;9.11;100.00
12203;BME280;6164;42.178;24.622;2022-12-18T07:00:58;100756.66;;;9.20;100.00
12203;BME280;6164;42.178;24.622;2022-12-18T07:03:25;100765.72;;;9.27;100.00
12203;BME280;6164;42.178;24.622;2022-12-18T07:05:52;100776.25;;;9.27;100.00
12203;BME280;6164;42.178;24.622;2022-12-18T07:08:18;100772.38;;;9.31;100.00
12203;BME280;6164;42.178;24.622;2022-12-18T07:10:45;100777.91;;;9.28;100.00
12203;BME280;6164;42.178;24.622;2022-12-18T07:13:11;100783.31;;;9.26;100.00
12203;BME280;6164;42.178;24.622;2022-12-18T07:15:39;100772.06;;;9.24;100.00
12203;BME280;6164;42.178;24.622;2022-12-18T07:18:05;100778.31;;;9.23;100.00
12203;BME280;6164;42.178;24.622;2022-12-18T07:20:32;100792.78;;;9.29;100.00
12203;BME280;6164;42.178;24.622;2022-12-18T07:22:58;100787.31;;;9.21;100.00
12203;BME280;6164;42.178;24.622;2022-12-18T07:25:25;100801.06;;;9.24;100.00
12203;BME280;6164;42.178;24.622;2022-12-18T07:27:51;100793.41;;;9.21;100.00
12203;BME280;6164;42.178;24.622;2022-12-18T07:30:18;100793.59;;;9.29;100.00
12203;BME280;6164;42.178;24.622;2022-12-18T07:32:45;100798.16;;;9.27;100.00
12203;BME280;6164;42.178;24.622;2022-12-18T07:35:12;100803.44;;;9.27;100.00
12203;BME280;6164;42.178;24.622;2022-12-18T07:37:38;100798.88;;;9.29;100.00
12203;BME280;6164;42.178;24.622;2022-12-18T07:40:05;100797.78;;;9.32;100.00
12203;BME280;6164;42.178;24.622;2022-12-18T07:42:32;100793.19;;;9.34;100.00
12203;BME280;6164;42.178;24.622;2022-12-18T07:44:59;100798.38;;;9.36;100.00
12203;BME280;6164;42.178;24.622;2022-12-18T07:47:26;100805.28;;;9.37;100.00
12203;BME280;6164;42.178;24.622;2022-12-18T07:49:54;100811.44;;;9.47;100.00
12203;BME280;6164;42.178;24.622;2022-12-18T07:52:20;100811.19;;;9.50;100.00
12203;BME280;6164;42.178;24.622;2022-12-18T07:54:47;100819.78;;;9.52;100.00
12203;BME280;6164;42.178;24.622;2022-12-18T07:57:14;100819.25;;;9.58;100.00
12203;BME280;6164;42.178;24.622;2022-12-18T07:59:40;100814.38;;;9.53;100.00
12203;BME280;6164;42.178;24.622;2022-12-18T08:02:07;100811.06;;;9.61;100.00
12203;BME280;6164;42.178;24.622;2022-12-18T08:04:34;100819.84;;;9.61;100.00
12203;BME280;6164;42.178;24.622;2022-12-18T08:07:02;100820.41;;;9.65;100.00
12203;BME280;6164;42.178;24.622;2022-12-18T08:09:28;100825.81;;;9.63;100.00
12203;BME280;6164;42.178;24.622;2022-12-18T08:11:55;100831.25;;;9.71;100.00
12203;BME280;6164;42.178;24.622;2022-12-18T08:14:21;100844.19;;;9.84;100.00
12203;BME280;6164;42.178;24.622;2022-12-18T08:16:48;100837.72;;;9.88;100.00
12203;BME280;6164;42.178;24.622;2022-12-18T08:19:14;100844.47;;;9.81;100.00
12203;BME280;6164;42.178;24.622;2022-12-18T08:21:41;100841.56;;;9.84;100.00
12203;BME280;6164;42.178;24.622;2022-12-18T08:24:09;100834.47;;;9.75;100.00
12203;BME280;6164;42.178;24.622;2022-12-18T08:26:35;100835.34;;;9.85;100.00
12203;BME280;6164;42.178;24.622;2022-12-18T08:29:02;100834.22;;;9.87;100.00
12203;BME280;6164;42.178;24.622;2022-12-18T08:31:29;100830.09;;;9.94;100.00
12203;BME280;6164;42.178;24.622;2022-12-18T08:33:56;100833.31;;;9.98;100.00
12203;BME280;6164;42.178;24.622;2022-12-18T08:36:23;100836.88;;;9.97;100.00
12203;BME280;6164;42.178;24.622;2022-12-18T08:38:49;100833.94;;;9.90;100.00
12203;BME280;6164;42.178;24.622;2022-12-18T08:41:17;100839.28;;;10.00;100.00
12203;BME280;6164;42.178;24.622;2022-12-18T08:43:44;100833.88;;;10.01;100.00
12203;BME280;6164;42.178;24.622;2022-12-18T08:46:31;100831.38;;;10.00;100.00
12203;BME280;6164;42.178;24.622;2022-12-18T08:48:58;100834.25;;;9.97;100.00
12203;BME280;6164;42.178;24.622;2022-12-18T08:51:25;100829.09;;;9.95;100.00
12203;BME280;6164;42.178;24.622;2022-12-18T08:53:51;100829.53;;;10.00;100.00
12203;BME280;6164;42.178;24.622;2022-12-18T08:56:19;100829.72;;;10.08;100.00
12203;BME280;6164;42.178;24.622;2022-12-18T08:58:45;100820.13;;;10.07;100.00
12203;BME280;6164;42.178;24.622;2022-12-18T09:01:12;100824.06;;;10.13;100.00
12203;BME280;6164;42.178;24.622;2022-12-18T09:03:39;100823.66;;;10.17;100.00
12203;BME280;6164;42.178;24.622;2022-12-18T09:06:06;100821.88;;;10.18;100.00
12203;BME280;6164;42.178;24.622;2022-12-18T09:08:36;100829.22;;;10.24;100.00
12203;BME280;6164;42.178;24.622;2022-12-18T09:11:02;100834.09;;;10.28;100.00
12203;BME280;6164;42.178;24.622;2022-12-18T09:13:30;100830.44;;;10.20;100.00
12203;BME280;6164;42.178;24.622;2022-12-18T09:16:00;100827.72;;;10.31;100.00
12203;BME280;6164;42.178;24.622;2022-12-18T09:18:29;100832.72;;;10.24;100.00
12203;BME280;6164;42.178;24.622;2022-12-18T09:20:55;100830.91;;;10.34;100.00
12203;BME280;6164;42.178;24.622;2022-12-18T09:23:22;100829.53;;;10.40;100.00
12203;BME280;6164;42.178;24.622;2022-12-18T09:25:48;100828.81;;;10.38;100.00
12203;BME280;6164;42.178;24.622;2022-12-18T09:28:15;100822.16;;;10.34;100.00
12203;BME280;6164;42.178;24.622;2022-12-18T09:30:44;100820.19;;;10.26;100.00
12203;BME280;6164;42.178;24.622;2022-12-18T09:33:11;100811.44;;;10.26;100.00
12203;BME280;6164;42.178;24.622;2022-12-18T09:35:40;100820.31;;;10.25;100.00
12203;BME280;6164;42.178;24.622;2022-12-18T09:38:07;100823.25;;;10.22;100.00
12203;BME280;6164;42.178;24.622;2022-12-18T09:40:35;100827.13;;;10.18;100.00
12203;BME280;6164;42.178;24.622;2022-12-18T09:43:03;100817.94;;;10.12;100.00
12203;BME280;6164;42.178;24.622;2022-12-18T09:45:30;100813.75;;;10.10;100.00
12203;BME280;6164;42.178;24.622;2022-12-18T09:48:05;100815.59;;;10.09;100.00
12203;BME280;6164;42.178;24.622;2022-12-18T09:50:34;100817.38;;;10.09;100.00
12203;BME280;6164;42.178;24.622;2022-12-18T09:53:02;100818.22;;;10.09;100.00
12203;BME280;6164;42.178;24.622;2022-12-18T09:55:34;100820.72;;;10.11;100.00
12203;BME280;6164;42.178;24.622;2022-12-18T09:58:04;100825.72;;;10.14;100.00
12203;BME280;6164;42.178;24.622;2022-12-18T10:00:32;100826.84;;;10.11;100.00
12203;BME280;6164;42.178;24.622;2022-12-18T10:02:59;100825.72;;;10.14;100.00
12203;BME280;6164;42.178;24.622;2022-12-18T10:05:31;100825.28;;;10.09;100.00
12203;BME280;6164;42.178;24.622;2022-12-18T10:08:02;100824.84;;;10.04;100.00
12203;BME280;6164;42.178;24.622;2022-12-18T10:10:32;100815.00;;;10.06;100.00
12203;BME280;6164;42.178;24.622;2022-12-18T10:13:04;100816.53;;;10.08;100.00
12203;BME280;6164;42.178;24.622;2022-12-18T10:15:34;100813.91;;;10.08;100.00
12203;BME280;6164;42.178;24.622;2022-12-18T10:18:04;100814.47;;;10.12;100.00
12203;BME280;6164;42.178;24.622;2022-12-18T10:20:37;100817.75;;;10.04;100.00
12203;BME280;6164;42.178;24.622;2022-12-18T10:23:09;100821.69;;;10.10;100.00
12203;BME280;6164;42.178;24.622;2022-12-18T10:25:40;100815.44;;;10.11;100.00
12203;BME280;6164;42.178;24.622;2022-12-18T10:28:10;100815.44;;;10.11;100.00
12203;BME280;6164;42.178;24.622;2022-12-18T10:30:38;100816.53;;;10.08;100.00
12203;BME280;6164;42.178;24.622;2022-12-18T10:33:05;100823.09;;;10.14;100.00
12203;BME280;6164;42.178;24.622;2022-12-18T10:35:33;100816.28;;;10.11;100.00
12203;BME280;6164;42.178;24.622;2022-12-18T10:40:47;100830.03;;;10.15;100.00
12203;BME280;6164;42.178;24.622;2022-12-18T10:43:15;100829.59;;;10.10;100.00
12203;BME280;6164;42.178;24.622;2022-12-18T10:45:42;100832.38;;;10.08;100.00
12203;BME280;6164;42.178;24.622;2022-12-18T10:48:23;100835.66;;;10.01;100.00
12203;BME280;6164;42.178;24.622;2022-12-18T10:50:51;100840.50;;;9.96;100.00
12203;BME280;6164;42.178;24.622;2022-12-18T10:53:19;100838.56;;;9.88;100.00
12203;BME280;6164;42.178;24.622;2022-12-18T10:55:46;100840.34;;;9.88;100.00
12203;BME280;6164;42.178;24.622;2022-12-18T10:58:13;100842.69;;;9.81;100.00
12203;BME280;6164;42.178;24.622;2022-12-18T11:00:42;100848.38;;;9.77;100.00
12203;BME280;6164;42.178;24.622;2022-12-18T11:03:28;100842.78;;;9.70;100.00
12203;BME280;6164;42.178;24.622;2022-12-18T11:06:02;100854.09;;;9.61;100.00
12203;BME280;6164;42.178;24.622;2022-12-18T11:08:29;100850.97;;;9.47;100.00
12203;BME280;6164;42.178;24.622;2022-12-18T11:10:55;100857.72;;;9.40;100.00
12203;BME280;6164;42.178;24.622;2022-12-18T11:13:22;100869.38;;;9.37;100.00
12203;BME280;6164;42.178;24.622;2022-12-18T11:15:49;100864.78;;;9.39;100.00
12203;BME280;6164;42.178;24.622;2022-12-18T11:18:16;100864.13;;;9.37;100.00
12203;BME280;6164;42.178;24.622;2022-12-18T11:20:49;100869.38;;;9.37;100.00
12203;BME280;6164;42.178;24.622;2022-12-18T11:23:18;100861.47;;;9.37;100.00
12203;BME280;6164;42.178;24.622;2022-12-18T11:25:50;100870.19;;;9.38;100.00
12203;BME280;6164;42.178;24.622;2022-12-18T11:28:25;100869.00;;;9.42;100.00
12203;BME280;6164;42.178;24.622;2022-12-18T11:30:55;100871.63;;;9.42;100.00
12203;BME280;6164;42.178;24.622;2022-12-18T11:33:34;100863.59;;;9.43;100.00
12203;BME280;6164;42.178;24.622;2022-12-18T11:36:02;100860.38;;;9.40;100.00
12203;BME280;6164;42.178;24.622;2022-12-18T11:38:32;100870.28;;;9.47;100.00
12203;BME280;6164;42.178;24.622;2022-12-18T11:41:00;100868.00;;;9.43;100.00
12203;BME280;6164;42.178;24.622;2022-12-18T11:43:29;100869.84;;;9.42;100.00
12203;BME280;6164;42.178;24.622;2022-12-18T11:45:59;100872.34;;;9.44;100.00
12203;BME280;6164;42.178;24.622;2022-12-18T11:48:28;100872.47;;;9.42;100.00
12203;BME280;6164;42.178;24.622;2022-12-18T11:50:57;100865.66;;;9.40;100.00
12203;BME280;6164;42.178;24.622;2022-12-18T11:53:24;100868.28;;;9.40;100.00
12203;BME280;6164;42.178;24.622;2022-12-18T11:55:56;100872.16;;;9.36;100.00
12203;BME280;6164;42.178;24.622;2022-12-18T11:58:29;100871.50;;;9.43;100.00
12203;BME280;6164;42.178;24.622;2022-12-18T12:01:01;100869.97;;;9.41;100.00
12203;BME280;6164;42.178;24.622;2022-12-18T12:06:21;100873.81;;;9.37;100.00
12203;BME280;6164;42.178;24.622;2022-12-18T12:08:53;100875.09;;;9.42;100.00
12203;BME280;6164;42.178;24.622;2022-12-18T12:11:28;100863.59;;;9.43;100.00
12203;BME280;6164;42.178;24.622;2022-12-18T12:14:03;100864.25;;;9.36;100.00
12203;BME280;6164;42.178;24.622;2022-12-18T12:16:36;100862.88;;;9.41;100.00
12203;BME280;6164;42.178;24.622;2022-12-18T12:19:11;100865.19;;;9.34;100.00
12203;BME280;6164;42.178;24.622;2022-12-18T12:21:42;100865.66;;;9.40;100.00
12203;BME280;6164;42.178;24.622;2022-12-18T12:24:12;100867.34;;;9.41;100.00
12203;BME280;6164;42.178;24.622;2022-12-18T12:26:48;100868.41;;;9.38;100.00
12203;BME280;6164;42.178;24.622;2022-12-18T12:29:21;100874.53;;;9.39;100.00
12203;BME280;6164;42.178;24.622;2022-12-18T12:31:55;100872.03;;;9.37;100.00
12203;BME280;6164;42.178;24.622;2022-12-18T12:34:29;100872.16;;;9.36;100.00
12203;BME280;6164;42.178;24.622;2022-12-18T12:37:04;100880.16;;;9.34;100.00
12203;BME280;6164;42.178;24.622;2022-12-18T12:39:35;100892.53;;;9.33;100.00
12203;BME280;6164;42.178;24.622;2022-12-18T12:42:05;100898.25;;;9.39;100.00
12203;BME280;6164;42.178;24.622;2022-12-18T12:44:50;100893.34;;;9.34;100.00
12203;BME280;6164;42.178;24.622;2022-12-18T12:47:19;100899.47;;;9.34;100.00
12203;BME280;6164;42.178;24.622;2022-12-18T12:49:47;100895.03;;;9.35;100.00
12203;BME280;6164;42.178;24.622;2022-12-18T12:52:14;100903.78;;;9.36;100.00
12203;BME280;6164;42.178;24.622;2022-12-18T12:54:42;100910.59;;;9.38;100.00
12203;BME280;6164;42.178;24.622;2022-12-18T12:57:12;100914.19;;;9.37;100.00
12203;BME280;6164;42.178;24.622;2022-12-18T12:59:41;100916.13;;;9.35;100.00
12203;BME280;6164;42.178;24.622;2022-12-18T13:02:14;100922.31;;;9.34;100.00